Cheektowaga, NY (14225)

8:38 AM EDT on April 26, 2015 (GMT -0400)
Cleve Hill | | Change Station
CLOSE
Current Station
Personal Weather Station
Location: Cheektowaga, NY
Elevation: 686 ft
Nearby Weather Stations

Elev 686 ft 42.94 °N, 78.77 °W | Updated 8 minutes ago

Mostly Cloudy
Mostly Cloudy
40.3 °F
Feels Like 40 °F
N
0.0
Wind Variable Wind from NE
Gusts 3.0 mph

Today
High -- | Low -- °F
--% Chance of Precip.
Yesterday
High -- | Low -- °F
Precip. -- in
6:16 AM 8:09 PM
First Quarter, 55% visible
Pressure 29.84 in
Visibility 10.0 miles
Clouds Mostly Cloudy 6500 ft
Windchill 40 °F
Dew Point 33 °F
Humidity 74%
Rainfall 0.00 in
Snow Depth Not available.
UV 1 out of 12
Pollen 10.00 out of 12
Air Quality Not available.
Flu Activity Widespread
METAR KBUF 261154Z 34004KT 10SM BKN065 03/M01 A2982 RMK AO2 SLP104 T00281011 10033 20006 53014

More Conditions Fewer Conditions

Pressure 29.84 in
Visibility 10.0 miles
Clouds Mostly Cloudy 6500 ft
Windchill 40 °F
Dew Point 33 °F
Humidity 74%
Rainfall 0.00 in
Snow Depth Not available.
UV 1 out of 12
Pollen 10.00 out of 12
Air Quality Not available.
Flu Activity Widespread
METAR KBUF 261154Z 34004KT 10SM BKN065 03/M01 A2982 RMK AO2 SLP104 T00281011 10033 20006 53014

More Conditions Fewer Conditions

The full scope of the disaster following a powerful 7.8-magnitude earthquake in Nepal may not come into view for days, but global charities are already sending emergency aid. Click to see how you can help.

10-Day Weather Forecast

Almanac

Astronomy

Apr. 26, 2015 Rise Set
Actual Time
Civil Twilight
Nautical Twilight
Astronomical Twilight
Moon
Length of Visible Light
Length of Day
Tomorrow will be .
, % of the Moon is Illuminated

Today's Extremes

State Highs State Lows

Community

WunderPhotos

Upload Photos

1,816,972 photos uploaded!

WunderBlogs® & News

Nearby

Air Quality

  Air Quality AQ Index Pollutant
Not available.

Snow Depth

Station Depth Elevation

Earthquake Activity

City Distance Mag. Time & Date
Minimum magnitude displayed is 2.5.

Coastal Water Temperatures

Place Temperature

Stations

Nearby Weather Stations

Station Location Temp. Windchill Dew Point Humidity Wind Precip. Elev Updated Type